sensor_id;sensor_type;location;lat;lon;timestamp;temperature;humidity
2002;DHT22;1003;48.002;7.788;2023-02-20T00:00:47;7.20;99.90
2002;DHT22;1003;48.002;7.788;2023-02-20T00:03:15;7.20;99.90
2002;DHT22;1003;48.002;7.788;2023-02-20T00:05:42;7.20;99.90
2002;DHT22;1003;48.002;7.788;2023-02-20T00:08:09;7.20;99.90
2002;DHT22;1003;48.002;7.788;2023-02-20T00:10:38;7.20;99.90
2002;DHT22;1003;48.002;7.788;2023-02-20T00:13:05;7.10;99.90
2002;DHT22;1003;48.002;7.788;2023-02-20T00:15:32;7.10;99.90
2002;DHT22;1003;48.002;7.788;2023-02-20T00:17:59;7.10;99.90
2002;DHT22;1003;48.002;7.788;2023-02-20T00:20:27;7.00;99.90
2002;DHT22;1003;48.002;7.788;2023-02-20T00:22:55;7.00;99.90
2002;DHT22;1003;48.002;7.788;2023-02-20T00:25:22;6.90;99.90
2002;DHT22;1003;48.002;7.788;2023-02-20T00:27:51;6.80;99.90
2002;DHT22;1003;48.002;7.788;2023-02-20T00:30:20;6.70;99.90
2002;DHT22;1003;48.002;7.788;2023-02-20T00:32:51;6.60;99.90
2002;DHT22;1003;48.002;7.788;2023-02-20T00:35:21;6.50;99.90
2002;DHT22;1003;48.002;7.788;2023-02-20T00:37:51;6.40;99.90
2002;DHT22;1003;48.002;7.788;2023-02-20T00:40:21;6.40;99.90
2002;DHT22;1003;48.002;7.788;2023-02-20T00:42:51;6.30;99.90
2002;DHT22;1003;48.002;7.788;2023-02-20T00:45:19;6.20;99.90
2002;DHT22;1003;48.002;7.788;2023-02-20T00:47:46;6.00;99.90
2002;DHT22;1003;48.002;7.788;2023-02-20T00:50:14;5.90;99.90
2002;DHT22;1003;48.002;7.788;2023-02-20T00:52:42;5.80;99.90
2002;DHT22;1003;48.002;7.788;2023-02-20T00:55:09;5.70;99.90
2002;DHT22;1003;48.002;7.788;2023-02-20T00:57:37;5.70;99.90
2002;DHT22;1003;48.002;7.788;2023-02-20T01:00:08;5.60;99.90
2002;DHT22;1003;48.002;7.788;2023-02-20T01:02:42;5.60;99.90
2002;DHT22;1003;48.002;7.788;2023-02-20T01:05:09;5.50;99.90
2002;DHT22;1003;48.002;7.788;2023-02-20T01:07:36;5.50;99.90
2002;DHT22;1003;48.002;7.788;2023-02-20T01:10:04;5.50;99.90
2002;DHT22;1003;48.002;7.788;2023-02-20T01:12:32;5.60;99.90
2002;DHT22;1003;48.002;7.788;2023-02-20T01:14:59;5.60;99.90
2002;DHT22;1003;48.002;7.788;2023-02-20T01:17:27;5.50;99.90
2002;DHT22;1003;48.002;7.788;2023-02-20T01:19:55;5.50;99.90
2002;DHT22;1003;48.002;7.788;2023-02-20T01:22:22;5.50;99.90
2002;DHT22;1003;48.002;7.788;2023-02-20T01:24:49;5.40;99.90
2002;DHT22;1003;48.002;7.788;2023-02-20T01:27:16;5.40;99.90
2002;DHT22;1003;48.002;7.788;2023-02-20T01:29:43;5.30;99.90
2002;DHT22;1003;48.002;7.788;2023-02-20T01:32:11;5.30;99.90
2002;DHT22;1003;48.002;7.788;2023-02-20T01:34:40;5.30;99.90
2002;DHT22;1003;48.002;7.788;2023-02-20T01:37:11;5.30;99.90
2002;DHT22;1003;48.002;7.788;2023-02-20T01:39:40;5.30;99.90
2002;DHT22;1003;48.002;7.788;2023-02-20T01:42:10;5.30;99.90
2002;DHT22;1003;48.002;7.788;2023-02-20T01:44:42;5.30;99.90
2002;DHT22;1003;48.002;7.788;2023-02-20T01:47:12;5.30;99.90
2002;DHT22;1003;48.002;7.788;2023-02-20T01:49:46;5.30;99.90
2002;DHT22;1003;48.002;7.788;2023-02-20T01:52:18;5.20;99.90
2002;DHT22;1003;48.002;7.788;2023-02-20T01:54:50;5.10;99.90
2002;DHT22;1003;48.002;7.788;2023-02-20T01:57:24;5.00;99.90
2002;DHT22;1003;48.002;7.788;2023-02-20T01:59:57;4.90;99.90
2002;DHT22;1003;48.002;7.788;2023-02-20T02:02:32;4.90;99.90
2002;DHT22;1003;48.002;7.788;2023-02-20T02:05:06;4.80;99.90
2002;DHT22;1003;48.002;7.788;2023-02-20T02:07:35;4.70;99.90
2002;DHT22;1003;48.002;7.788;2023-02-20T02:10:06;4.60;99.90
2002;DHT22;1003;48.002;7.788;2023-02-20T02:12:34;4.50;99.90
2002;DHT22;1003;48.002;7.788;2023-02-20T02:15:02;4.40;99.90
2002;DHT22;1003;48.002;7.788;2023-02-20T02:17:49;4.30;99.90
2002;DHT22;1003;48.002;7.788;2023-02-20T02:31:20;4.10;99.90
2002;DHT22;1003;48.002;7.788;2023-02-20T02:34:29;4.00;99.90
2002;DHT22;1003;48.002;7.788;2023-02-20T02:37:22;3.80;99.90
2002;DHT22;1003;48.002;7.788;2023-02-20T02:40:00;3.70;99.90
2002;DHT22;1003;48.002;7.788;2023-02-20T02:42:41;3.60;99.90
2002;DHT22;1003;48.002;7.788;2023-02-20T02:45:18;3.60;99.90
2002;DHT22;1003;48.002;7.788;2023-02-20T02:47:55;3.50;99.90
2002;DHT22;1003;48.002;7.788;2023-02-20T02:50:30;3.50;99.90
2002;DHT22;1003;48.002;7.788;2023-02-20T02:53:03;3.40;99.90
2002;DHT22;1003;48.002;7.788;2023-02-20T02:55:32;3.30;99.90
2002;DHT22;1003;48.002;7.788;2023-02-20T02:57:59;3.30;99.90
2002;DHT22;1003;48.002;7.788;2023-02-20T03:00:30;3.20;99.90
2002;DHT22;1003;48.002;7.788;2023-02-20T03:03:06;3.30;99.90
2002;DHT22;1003;48.002;7.788;2023-02-20T03:05:39;3.20;99.90
2002;DHT22;1003;48.002;7.788;2023-02-20T03:08:22;3.30;99.90
2002;DHT22;1003;48.002;7.788;2023-02-20T03:10:59;3.30;99.90
2002;DHT22;1003;48.002;7.788;2023-02-20T03:13:32;3.20;99.90
2002;DHT22;1003;48.002;7.788;2023-02-20T03:16:26;3.20;99.90
2002;DHT22;1003;48.002;7.788;2023-02-20T03:19:00;3.20;99.90
2002;DHT22;1003;48.002;7.788;2023-02-20T03:21:31;3.20;99.90
2002;DHT22;1003;48.002;7.788;2023-02-20T03:24:02;3.40;99.90
2002;DHT22;1003;48.002;7.788;2023-02-20T03:26:33;3.50;99.90
2002;DHT22;1003;48.002;7.788;2023-02-20T03:29:06;3.50;99.90
2002;DHT22;1003;48.002;7.788;2023-02-20T03:31:42;3.50;99.90
2002;DHT22;1003;48.002;7.788;2023-02-20T03:34:15;3.60;99.90
2002;DHT22;1003;48.002;7.788;2023-02-20T03:37:05;3.70;99.90
2002;DHT22;1003;48.002;7.788;2023-02-20T03:39:57;3.70;99.90
2002;DHT22;1003;48.002;7.788;2023-02-20T03:42:48;3.70;99.90
2002;DHT22;1003;48.002;7.788;2023-02-20T03:45:38;3.70;99.90
2002;DHT22;1003;48.002;7.788;2023-02-20T03:48:13;3.70;99.90
2002;DHT22;1003;48.002;7.788;2023-02-20T03:50:45;3.70;99.90
2002;DHT22;1003;48.002;7.788;2023-02-20T03:53:12;3.70;99.90
2002;DHT22;1003;48.002;7.788;2023-02-20T03:55:43;3.80;99.90
2002;DHT22;1003;48.002;7.788;2023-02-20T03:58:13;3.80;99.90
2002;DHT22;1003;48.002;7.788;2023-02-20T04:00:45;3.70;99.90
2002;DHT22;1003;48.002;7.788;2023-02-20T04:03:19;3.70;99.90
2002;DHT22;1003;48.002;7.788;2023-02-20T04:05:50;3.60;99.90
2002;DHT22;1003;48.002;7.788;2023-02-20T04:08:23;3.60;99.90
2002;DHT22;1003;48.002;7.788;2023-02-20T04:11:00;3.60;99.90
2002;DHT22;1003;48.002;7.788;2023-02-20T04:13:32;3.60;99.90
2002;DHT22;1003;48.002;7.788;2023-02-20T04:16:01;3.60;99.90
2002;DHT22;1003;48.002;7.788;2023-02-20T04:18:28;3.50;99.90
2002;DHT22;1003;48.002;7.788;2023-02-20T04:20:59;3.40;99.90
2002;DHT22;1003;48.002;7.788;2023-02-20T04:23:32;3.30;99.90
2002;DHT22;1003;48.002;7.788;2023-02-20T04:26:06;3.10;99.90
2002;DHT22;1003;48.002;7.788;2023-02-20T04:28:37;2.90;99.90
2002;DHT22;1003;48.002;7.788;2023-02-20T04:31:04;2.80;99.90
2002;DHT22;1003;48.002;7.788;2023-02-20T04:33:32;2.70;99.90
2002;DHT22;1003;48.002;7.788;2023-02-20T04:35:59;2.60;99.90
2002;DHT22;1003;48.002;7.788;2023-02-20T04:38:26;2.60;99.90
2002;DHT22;1003;48.002;7.788;2023-02-20T04:40:53;2.60;99.90
2002;DHT22;1003;48.002;7.788;2023-02-20T04:43:22;2.70;99.90
2002;DHT22;1003;48.002;7.788;2023-02-20T04:45:49;2.60;99.90
2002;DHT22;1003;48.002;7.788;2023-02-20T04:48:16;2.50;99.90
2002;DHT22;1003;48.002;7.788;2023-02-20T04:50:43;2.30;99.90
2002;DHT22;1003;48.002;7.788;2023-02-20T04:53:10;2.20;99.90
2002;DHT22;1003;48.002;7.788;2023-02-20T04:55:37;2.20;99.90
2002;DHT22;1003;48.002;7.788;2023-02-20T04:58:05;2.00;99.90
2002;DHT22;1003;48.002;7.788;2023-02-20T05:00:33;2.00;99.90
2002;DHT22;1003;48.002;7.788;2023-02-20T05:03:00;1.90;99.90
2002;DHT22;1003;48.002;7.788;2023-02-20T05:05:28;1.90;99.90
2002;DHT22;1003;48.002;7.788;2023-02-20T05:07:57;1.80;99.90
2002;DHT22;1003;48.002;7.788;2023-02-20T05:10:27;1.70;99.90
2002;DHT22;1003;48.002;7.788;2023-02-20T05:12:56;1.60;99.90
2002;DHT22;1003;48.002;7.788;2023-02-20T05:15:24;1.60;99.90
2002;DHT22;1003;48.002;7.788;2023-02-20T05:17:54;1.60;99.90
2002;DHT22;1003;48.002;7.788;2023-02-20T05:20:22;1.50;99.90
2002;DHT22;1003;48.002;7.788;2023-02-20T05:23:09;1.60;99.90
2002;DHT22;1003;48.002;7.788;2023-02-20T05:25:35;1.60;99.90
2002;DHT22;1003;48.002;7.788;2023-02-20T05:28:03;1.50;99.90
2002;DHT22;1003;48.002;7.788;2023-02-20T05:30:30;1.60;99.90
2002;DHT22;1003;48.002;7.788;2023-02-20T05:32:58;1.60;99.90
2002;DHT22;1003;48.002;7.788;2023-02-20T05:35:25;1.60;99.90
2002;DHT22;1003;48.002;7.788;2023-02-20T05:37:52;1.80;99.90
2002;DHT22;1003;48.002;7.788;2023-02-20T05:40:19;1.90;99.90
2002;DHT22;1003;48.002;7.788;2023-02-20T05:42:46;2.10;99.90
2002;DHT22;1003;48.002;7.788;2023-02-20T05:45:14;2.20;99.90
2002;DHT22;1003;48.002;7.788;2023-02-20T05:47:41;2.20;99.90
2002;DHT22;1003;48.002;7.788;2023-02-20T05:50:09;2.30;99.90
2002;DHT22;1003;48.002;7.788;2023-02-20T05:52:36;2.30;99.90
2002;DHT22;1003;48.002;7.788;2023-02-20T05:55:04;2.50;99.90
2002;DHT22;1003;48.002;7.788;2023-02-20T05:57:31;2.50;99.90
2002;DHT22;1003;48.002;7.788;2023-02-20T05:59:58;2.50;99.90
2002;DHT22;1003;48.002;7.788;2023-02-20T06:02:25;2.50;99.90
2002;DHT22;1003;48.002;7.788;2023-02-20T06:04:53;2.50;99.90
2002;DHT22;1003;48.002;7.788;2023-02-20T06:07:22;2.60;99.90
2002;DHT22;1003;48.002;7.788;2023-02-20T06:09:49;2.30;99.90
2002;DHT22;1003;48.002;7.788;2023-02-20T06:12:16;2.10;99.90
2002;DHT22;1003;48.002;7.788;2023-02-20T06:14:43;1.90;99.90
2002;DHT22;1003;48.002;7.788;2023-02-20T06:17:10;1.90;99.90
2002;DHT22;1003;48.002;7.788;2023-02-20T06:19:37;1.70;99.90
2002;DHT22;1003;48.002;7.788;2023-02-20T06:22:04;1.60;99.90
2002;DHT22;1003;48.002;7.788;2023-02-20T06:24:33;1.50;99.90
2002;DHT22;1003;48.002;7.788;2023-02-20T06:27:00;1.40;99.90
2002;DHT22;1003;48.002;7.788;2023-02-20T06:29:27;1.40;99.90
2002;DHT22;1003;48.002;7.788;2023-02-20T06:31:57;1.50;99.90
2002;DHT22;1003;48.002;7.788;2023-02-20T06:34:24;1.60;99.90
2002;DHT22;1003;48.002;7.788;2023-02-20T06:36:56;1.70;99.90
2002;DHT22;1003;48.002;7.788;2023-02-20T06:39:23;1.80;99.90
2002;DHT22;1003;48.002;7.788;2023-02-20T06:41:51;2.00;99.90
2002;DHT22;1003;48.002;7.788;2023-02-20T06:44:18;2.10;99.90
2002;DHT22;1003;48.002;7.788;2023-02-20T06:46:45;2.20;99.90
2002;DHT22;1003;48.002;7.788;2023-02-20T06:49:13;2.20;99.90
2002;DHT22;1003;48.002;7.788;2023-02-20T06:51:40;2.30;99.90
2002;DHT22;1003;48.002;7.788;2023-02-20T06:54:09;2.40;99.90
2002;DHT22;1003;48.002;7.788;2023-02-20T06:56:37;2.50;99.90
2002;DHT22;1003;48.002;7.788;2023-02-20T06:59:06;2.60;99.90
2002;DHT22;1003;48.002;7.788;2023-02-20T07:01:37;2.80;99.90
2002;DHT22;1003;48.002;7.788;2023-02-20T07:04:07;2.90;99.90
2002;DHT22;1003;48.002;7.788;2023-02-20T07:06:40;3.10;99.90
2002;DHT22;1003;48.002;7.788;2023-02-20T07:09:08;3.20;99.90
2002;DHT22;1003;48.002;7.788;2023-02-20T07:11:35;3.30;99.90
2002;DHT22;1003;48.002;7.788;2023-02-20T07:14:02;3.50;99.90
2002;DHT22;1003;48.002;7.788;2023-02-20T07:16:30;3.70;99.90
2002;DHT22;1003;48.002;7.788;2023-02-20T07:18:57;3.80;99.90
2002;DHT22;1003;48.002;7.788;2023-02-20T07:21:24;4.00;99.90
2002;DHT22;1003;48.002;7.788;2023-02-20T07:23:52;4.20;99.90
2002;DHT22;1003;48.002;7.788;2023-02-20T07:26:20;4.40;99.90
2002;DHT22;1003;48.002;7.788;2023-02-20T07:28:49;4.50;99.90
2002;DHT22;1003;48.002;7.788;2023-02-20T07:31:17;4.70;99.90
2002;DHT22;1003;48.002;7.788;2023-02-20T07:33:45;4.90;99.90
2002;DHT22;1003;48.002;7.788;2023-02-20T07:36:13;5.00;99.90
2002;DHT22;1003;48.002;7.788;2023-02-20T07:38:41;5.10;99.90
2002;DHT22;1003;48.002;7.788;2023-02-20T07:41:09;5.20;99.90
2002;DHT22;1003;48.002;7.788;2023-02-20T07:43:40;5.40;99.90
2002;DHT22;1003;48.002;7.788;2023-02-20T07:46:07;5.50;99.90
2002;DHT22;1003;48.002;7.788;2023-02-20T07:48:34;5.70;99.90
2002;DHT22;1003;48.002;7.788;2023-02-20T07:51:03;5.80;99.90
2002;DHT22;1003;48.002;7.788;2023-02-20T07:53:30;6.00;99.90
2002;DHT22;1003;48.002;7.788;2023-02-20T07:55:57;6.10;99.90
2002;DHT22;1003;48.002;7.788;2023-02-20T07:58:24;6.20;99.90
2002;DHT22;1003;48.002;7.788;2023-02-20T08:00:51;6.30;99.90
2002;DHT22;1003;48.002;7.788;2023-02-20T08:03:21;6.40;99.90
2002;DHT22;1003;48.002;7.788;2023-02-20T08:05:48;6.50;99.90
2002;DHT22;1003;48.002;7.788;2023-02-20T08:08:16;6.60;99.90
2002;DHT22;1003;48.002;7.788;2023-02-20T08:10:43;6.60;99.90
2002;DHT22;1003;48.002;7.788;2023-02-20T08:13:10;6.70;99.90
2002;DHT22;1003;48.002;7.788;2023-02-20T08:15:37;6.80;99.90
2002;DHT22;1003;48.002;7.788;2023-02-20T08:18:06;6.90;99.90
2002;DHT22;1003;48.002;7.788;2023-02-20T08:20:33;7.00;99.90
2002;DHT22;1003;48.002;7.788;2023-02-20T08:23:00;7.20;99.90
2002;DHT22;1003;48.002;7.788;2023-02-20T08:25:31;7.30;99.90
2002;DHT22;1003;48.002;7.788;2023-02-20T08:27:58;7.40;99.90
2002;DHT22;1003;48.002;7.788;2023-02-20T08:30:26;7.50;99.90
2002;DHT22;1003;48.002;7.788;2023-02-20T08:32:54;7.60;99.90
2002;DHT22;1003;48.002;7.788;2023-02-20T08:35:21;7.70;99.90
2002;DHT22;1003;48.002;7.788;2023-02-20T08:37:49;7.90;99.90
2002;DHT22;1003;48.002;7.788;2023-02-20T08:40:16;7.90;99.90
2002;DHT22;1003;48.002;7.788;2023-02-20T08:42:48;8.00;99.90
2002;DHT22;1003;48.002;7.788;2023-02-20T08:45:15;8.10;99.90
2002;DHT22;1003;48.002;7.788;2023-02-20T08:47:43;8.20;99.90
2002;DHT22;1003;48.002;7.788;2023-02-20T08:50:10;8.30;99.90
2002;DHT22;1003;48.002;7.788;2023-02-20T08:52:37;8.40;99.90
2002;DHT22;1003;48.002;7.788;2023-02-20T08:55:04;8.60;99.90
2002;DHT22;1003;48.002;7.788;2023-02-20T08:57:31;8.60;99.90
2002;DHT22;1003;48.002;7.788;2023-02-20T09:00:00;8.70;99.90
2002;DHT22;1003;48.002;7.788;2023-02-20T09:02:27;8.90;99.90
2002;DHT22;1003;48.002;7.788;2023-02-20T09:04:55;9.10;99.90
2002;DHT22;1003;48.002;7.788;2023-02-20T09:07:23;9.10;99.90
2002;DHT22;1003;48.002;7.788;2023-02-20T09:09:50;9.30;99.90
2002;DHT22;1003;48.002;7.788;2023-02-20T09:12:18;9.40;99.90
2002;DHT22;1003;48.002;7.788;2023-02-20T09:14:45;9.70;99.90
2002;DHT22;1003;48.002;7.788;2023-02-20T09:17:14;9.80;99.90
2002;DHT22;1003;48.002;7.788;2023-02-20T09:19:41;9.90;99.90
2002;DHT22;1003;48.002;7.788;2023-02-20T09:22:08;10.00;99.90
2002;DHT22;1003;48.002;7.788;2023-02-20T09:24:35;10.00;99.90
2002;DHT22;1003;48.002;7.788;2023-02-20T09:27:03;10.10;99.90
2002;DHT22;1003;48.002;7.788;2023-02-20T09:29:31;10.20;99.90
2002;DHT22;1003;48.002;7.788;2023-02-20T09:31:58;10.30;99.90
2002;DHT22;1003;48.002;7.788;2023-02-20T09:34:26;10.30;99.90
2002;DHT22;1003;48.002;7.788;2023-02-20T09:36:53;10.40;99.90
2002;DHT22;1003;48.002;7.788;2023-02-20T09:39:20;10.50;99.90
2002;DHT22;1003;48.002;7.788;2023-02-20T09:42:08;10.70;99.90
2002;DHT22;1003;48.002;7.788;2023-02-20T09:44:57;10.80;99.90
2002;DHT22;1003;48.002;7.788;2023-02-20T09:47:41;11.00;99.90
2002;DHT22;1003;48.002;7.788;2023-02-20T09:50:23;11.10;99.90
2002;DHT22;1003;48.002;7.788;2023-02-20T09:53:01;11.20;99.90
2002;DHT22;1003;48.002;7.788;2023-02-20T09:55:35;11.20;99.90
2002;DHT22;1003;48.002;7.788;2023-02-20T09:58:06;11.30;99.90
2002;DHT22;1003;48.002;7.788;2023-02-20T10:00:46;11.20;99.90
2002;DHT22;1003;48.002;7.788;2023-02-20T10:03:19;11.10;99.90
2002;DHT22;1003;48.002;7.788;2023-02-20T10:05:54;11.10;99.90
2002;DHT22;1003;48.002;7.788;2023-02-20T10:08:22;11.30;99.90
2002;DHT22;1003;48.002;7.788;2023-02-20T10:10:51;11.40;99.90
2002;DHT22;1003;48.002;7.788;2023-02-20T10:13:41;11.40;99.90
2002;DHT22;1003;48.002;7.788;2023-02-20T10:16:24;11.40;99.90
2002;DHT22;1003;48.002;7.788;2023-02-20T10:19:08;11.60;99.90
2002;DHT22;1003;48.002;7.788;2023-02-20T10:21:52;11.80;99.90
2002;DHT22;1003;48.002;7.788;2023-02-20T10:24:46;11.70;99.90
2002;DHT22;1003;48.002;7.788;2023-02-20T10:27:30;11.70;99.90
2002;DHT22;1003;48.002;7.788;2023-02-20T10:30:01;11.70;99.90
2002;DHT22;1003;48.002;7.788;2023-02-20T10:32:37;11.80;99.90
2002;DHT22;1003;48.002;7.788;2023-02-20T10:35:12;11.90;99.90
2002;DHT22;1003;48.002;7.788;2023-02-20T10:37:48;11.90;99.90
2002;DHT22;1003;48.002;7.788;2023-02-20T10:40:22;12.00;99.90
2002;DHT22;1003;48.002;7.788;2023-02-20T10:43:00;12.10;99.90
2002;DHT22;1003;48.002;7.788;2023-02-20T10:45:38;12.30;99.90
2002;DHT22;1003;48.002;7.788;2023-02-20T10:48:13;12.20;99.90
2002;DHT22;1003;48.002;7.788;2023-02-20T10:50:46;12.20;99.90
2002;DHT22;1003;48.002;7.788;2023-02-20T10:53:24;12.20;99.90
2002;DHT22;1003;48.002;7.788;2023-02-20T10:56:02;12.20;99.90
2002;DHT22;1003;48.002;7.788;2023-02-20T10:58:38;12.30;99.90
2002;DHT22;1003;48.002;7.788;2023-02-20T11:01:14;12.40;99.90
2002;DHT22;1003;48.002;7.788;2023-02-20T11:03:48;12.30;99.90
2002;DHT22;1003;48.002;7.788;2023-02-20T11:06:25;12.40;99.90
2002;DHT22;1003;48.002;7.788;2023-02-20T11:08:58;12.60;99.90
2002;DHT22;1003;48.002;7.788;2023-02-20T11:11:30;12.70;99.90
2002;DHT22;1003;48.002;7.788;2023-02-20T11:14:04;12.80;99.90
2002;DHT22;1003;48.002;7.788;2023-02-20T11:16:41;12.60;99.90
2002;DHT22;1003;48.002;7.788;2023-02-20T11:19:19;12.60;99.90
2002;DHT22;1003;48.002;7.788;2023-02-20T11:21:49;12.70;99.90
2002;DHT22;1003;48.002;7.788;2023-02-20T11:24:25;12.70;99.90
2002;DHT22;1003;48.002;7.788;2023-02-20T11:26:58;12.60;99.90
2002;DHT22;1003;48.002;7.788;2023-02-20T11:29:34;12.70;99.90
2002;DHT22;1003;48.002;7.788;2023-02-20T11:35:14;12.80;99.90
2002;DHT22;1003;48.002;7.788;2023-02-20T11:37:50;12.80;99.90
2002;DHT22;1003;48.002;7.788;2023-02-20T11:40:39;12.70;99.90
2002;DHT22;1003;48.002;7.788;2023-02-20T11:43:13;12.90;99.90
2002;DHT22;1003;48.002;7.788;2023-02-20T11:45:45;13.00;99.90
2002;DHT22;1003;48.002;7.788;2023-02-20T11:48:13;12.90;99.90
2002;DHT22;1003;48.002;7.788;2023-02-20T11:50:42;13.00;99.90
2002;DHT22;1003;48.002;7.788;2023-02-20T11:53:19;13.00;99.90
2002;DHT22;1003;48.002;7.788;2023-02-20T11:56:05;13.00;99.90
2002;DHT22;1003;48.002;7.788;2023-02-20T11:58:33;13.20;99.90
2002;DHT22;1003;48.002;7.788;2023-02-20T12:01:01;13.20;99.90
2002;DHT22;1003;48.002;7.788;2023-02-20T12:03:29;13.20;99.90
2002;DHT22;1003;48.002;7.788;2023-02-20T12:06:00;13.10;99.90
2002;DHT22;1003;48.002;7.788;2023-02-20T12:08:38;13.00;99.90
2002;DHT22;1003;48.002;7.788;2023-02-20T12:11:20;13.00;99.90
2002;DHT22;1003;48.002;7.788;2023-02-20T12:13:51;13.10;99.90
2002;DHT22;1003;48.002;7.788;2023-02-20T12:16:32;13.30;99.90
2002;DHT22;1003;48.002;7.788;2023-02-20T12:19:15;13.40;99.90
2002;DHT22;1003;48.002;7.788;2023-02-20T12:21:58;13.50;99.90
2002;DHT22;1003;48.002;7.788;2023-02-20T12:24:46;13.50;99.90
2002;DHT22;1003;48.002;7.788;2023-02-20T12:27:39;13.40;99.90
2002;DHT22;1003;48.002;7.788;2023-02-20T12:30:26;13.50;99.90
2002;DHT22;1003;48.002;7.788;2023-02-20T12:33:23;13.50;99.90
2002;DHT22;1003;48.002;7.788;2023-02-20T12:36:29;13.50;99.90
2002;DHT22;1003;48.002;7.788;2023-02-20T12:39:05;13.60;99.90
2002;DHT22;1003;48.002;7.788;2023-02-20T12:42:02;13.70;99.90
2002;DHT22;1003;48.002;7.788;2023-02-20T12:45:00;13.70;99.90
2002;DHT22;1003;48.002;7.788;2023-02-20T12:47:41;13.90;99.90
2002;DHT22;1003;48.002;7.788;2023-02-20T12:53:29;14.00;99.90
2002;DHT22;1003;48.002;7.788;2023-02-20T12:56:16;14.00;99.90
2002;DHT22;1003;48.002;7.788;2023-02-20T12:58:58;14.10;99.90
2002;DHT22;1003;48.002;7.788;2023-02-20T13:01:33;14.10;99.90
2002;DHT22;1003;48.002;7.788;2023-02-20T13:04:04;14.10;99.90
2002;DHT22;1003;48.002;7.788;2023-02-20T13:06:43;14.10;99.90
2002;DHT22;1003;48.002;7.788;2023-02-20T13:09:19;14.20;99.90
2002;DHT22;1003;48.002;7.788;2023-02-20T13:11:53;14.20;99.90
2002;DHT22;1003;48.002;7.788;2023-02-20T13:14:33;14.20;99.90
2002;DHT22;1003;48.002;7.788;2023-02-20T13:17:20;14.20;99.90
2002;DHT22;1003;48.002;7.788;2023-02-20T13:19:57;14.00;99.90
2002;DHT22;1003;48.002;7.788;2023-02-20T13:22:32;14.10;99.90
2002;DHT22;1003;48.002;7.788;2023-02-20T13:25:30;14.10;99.90
2002;DHT22;1003;48.002;7.788;2023-02-20T13:28:21;14.20;99.90
2002;DHT22;1003;48.002;7.788;2023-02-20T13:31:13;14.30;99.90
2002;DHT22;1003;48.002;7.788;2023-02-20T13:33:45;14.40;99.90
2002;DHT22;1003;48.002;7.788;2023-02-20T13:36:37;14.50;99.90
2002;DHT22;1003;48.002;7.788;2023-02-20T13:39:34;14.50;99.90
2002;DHT22;1003;48.002;7.788;2023-02-20T13:42:06;14.50;99.90
2002;DHT22;1003;48.002;7.788;2023-02-20T13:44:51;14.40;99.90
2002;DHT22;1003;48.002;7.788;2023-02-20T13:47:32;14.40;99.90
2002;DHT22;1003;48.002;7.788;2023-02-20T13:50:27;14.40;99.90
2002;DHT22;1003;48.002;7.788;2023-02-20T13:53:00;14.30;99.90
2002;DHT22;1003;48.002;7.788;2023-02-20T13:55:28;14.30;99.90
2002;DHT22;1003;48.002;7.788;2023-02-20T13:58:02;14.30;99.90
2002;DHT22;1003;48.002;7.788;2023-02-20T14:00:45;14.30;99.90
2002;DHT22;1003;48.002;7.788;2023-02-20T14:03:19;14.30;99.90
2002;DHT22;1003;48.002;7.788;2023-02-20T14:06:03;14.20;99.90
2002;DHT22;1003;48.002;7.788;2023-02-20T14:08:33;14.20;99.90
2002;DHT22;1003;48.002;7.788;2023-02-20T14:11:05;14.30;99.90
2002;DHT22;1003;48.002;7.788;2023-02-20T14:13:35;14.20;99.90
2002;DHT22;1003;48.002;7.788;2023-02-20T14:16:19;14.10;99.90
2002;DHT22;1003;48.002;7.788;2023-02-20T14:18:56;14.10;99.90
2002;DHT22;1003;48.002;7.788;2023-02-20T14:21:25;14.20;99.90
2002;DHT22;1003;48.002;7.788;2023-02-20T14:23:55;14.20;99.90
2002;DHT22;1003;48.002;7.788;2023-02-20T14:26:23;14.20;99.90
2002;DHT22;1003;48.002;7.788;2023-02-20T14:28:53;14.20;99.90
2002;DHT22;1003;48.002;7.788;2023-02-20T14:31:24;14.20;99.90
2002;DHT22;1003;48.002;7.788;2023-02-20T14:33:55;14.20;99.90
2002;DHT22;1003;48.002;7.788;2023-02-20T14:36:34;14.50;99.90
2002;DHT22;1003;48.002;7.788;2023-02-20T14:39:18;14.70;99.90
2002;DHT22;1003;48.002;7.788;2023-02-20T14:41:55;14.60;99.90
2002;DHT22;1003;48.002;7.788;2023-02-20T14:44:24;14.70;99.90
2002;DHT22;1003;48.002;7.788;2023-02-20T14:46:54;14.60;99.90
2002;DHT22;1003;48.002;7.788;2023-02-20T14:49:27;14.50;99.90
2002;DHT22;1003;48.002;7.788;2023-02-20T14:52:15;14.40;99.90
2002;DHT22;1003;48.002;7.788;2023-02-20T14:54:55;14.40;99.90
2002;DHT22;1003;48.002;7.788;2023-02-20T14:57:25;14.40;99.90
2002;DHT22;1003;48.002;7.788;2023-02-20T15:00:07;14.40;99.90
2002;DHT22;1003;48.002;7.788;2023-02-20T15:02:35;14.40;99.90
2002;DHT22;1003;48.002;7.788;2023-02-20T15:05:05;14.50;99.90
2002;DHT22;1003;48.002;7.788;2023-02-20T15:07:37;14.50;99.90
2002;DHT22;1003;48.002;7.788;2023-02-20T15:10:29;14.70;99.90
2002;DHT22;1003;48.002;7.788;2023-02-20T15:13:04;14.70;99.90
2002;DHT22;1003;48.002;7.788;2023-02-20T15:15:35;14.60;99.90
2002;DHT22;1003;48.002;7.788;2023-02-20T15:18:11;14.70;99.90
2002;DHT22;1003;48.002;7.788;2023-02-20T15:20:43;14.80;99.90
2002;DHT22;1003;48.002;7.788;2023-02-20T15:23:24;14.80;99.90
2002;DHT22;1003;48.002;7.788;2023-02-20T15:25:55;14.70;99.90
2002;DHT22;1003;48.002;7.788;2023-02-20T15:28:27;14.70;99.90
2002;DHT22;1003;48.002;7.788;2023-02-20T15:31:04;14.60;99.90
2002;DHT22;1003;48.002;7.788;2023-02-20T15:33:45;14.50;99.90
2002;DHT22;1003;48.002;7.788;2023-02-20T15:36:17;14.50;99.90
2002;DHT22;1003;48.002;7.788;2023-02-20T15:38:49;14.40;99.90
2002;DHT22;1003;48.002;7.788;2023-02-20T15:41:18;14.20;99.90
2002;DHT22;1003;48.002;7.788;2023-02-20T15:43:46;14.00;99.90
2002;DHT22;1003;48.002;7.788;2023-02-20T15:46:13;13.90;99.90
2002;DHT22;1003;48.002;7.788;2023-02-20T15:48:40;13.80;99.90
2002;DHT22;1003;48.002;7.788;2023-02-20T15:51:07;13.70;99.90
2002;DHT22;1003;48.002;7.788;2023-02-20T15:53:35;13.60;99.90
2002;DHT22;1003;48.002;7.788;2023-02-20T15:56:05;13.50;99.90
2002;DHT22;1003;48.002;7.788;2023-02-20T15:58:35;13.40;99.90
2002;DHT22;1003;48.002;7.788;2023-02-20T16:01:03;13.40;99.90
2002;DHT22;1003;48.002;7.788;2023-02-20T16:03:32;13.40;99.90
2002;DHT22;1003;48.002;7.788;2023-02-20T16:06:00;13.30;99.90
2002;DHT22;1003;48.002;7.788;2023-02-20T16:08:27;13.20;99.90
2002;DHT22;1003;48.002;7.788;2023-02-20T16:10:55;13.10;99.90
2002;DHT22;1003;48.002;7.788;2023-02-20T16:13:28;12.90;99.90
2002;DHT22;1003;48.002;7.788;2023-02-20T16:15:56;12.80;99.90
2002;DHT22;1003;48.002;7.788;2023-02-20T16:18:24;12.70;99.90
2002;DHT22;1003;48.002;7.788;2023-02-20T16:20:51;12.50;99.90
2002;DHT22;1003;48.002;7.788;2023-02-20T16:23:18;12.40;99.90
2002;DHT22;1003;48.002;7.788;2023-02-20T16:25:45;12.30;99.90
2002;DHT22;1003;48.002;7.788;2023-02-20T16:28:13;12.10;99.90
2002;DHT22;1003;48.002;7.788;2023-02-20T16:30:42;12.10;99.90
2002;DHT22;1003;48.002;7.788;2023-02-20T16:33:13;12.00;99.90
2002;DHT22;1003;48.002;7.788;2023-02-20T16:35:42;11.90;99.90
2002;DHT22;1003;48.002;7.788;2023-02-20T16:38:10;11.70;99.90
2002;DHT22;1003;48.002;7.788;2023-02-20T16:40:37;11.60;99.90
2002;DHT22;1003;48.002;7.788;2023-02-20T16:43:05;11.50;99.90
2002;DHT22;1003;48.002;7.788;2023-02-20T16:45:33;11.40;99.90
2002;DHT22;1003;48.002;7.788;2023-02-20T16:48:03;11.20;99.90
2002;DHT22;1003;48.002;7.788;2023-02-20T16:50:31;11.10;99.90
2002;DHT22;1003;48.002;7.788;2023-02-20T16:53:00;11.00;99.90
2002;DHT22;1003;48.002;7.788;2023-02-20T16:55:31;10.90;99.90
2002;DHT22;1003;48.002;7.788;2023-02-20T16:57:59;10.70;99.90
2002;DHT22;1003;48.002;7.788;2023-02-20T17:00:29;10.60;99.90